Rhapsody — IBQF — position and weather

sailwx.info

Track history (hours):
 
Tides and Currents Weather Stations Pressure Air Temp Water Temp Dewpoint Dewpoint Depression Visibility Wind Speed Wind Dir Waves Ship Positions

Rhapsody

Operator: Mediterranean Shipping Company

Last reported at 2017-Jun-23 17:06 UTC. Time now 2017-Jun-26 17:18 UTC.
Position N 55°43' E 021°06'.

Length 180 m; draft 10.3 m.

Type: Ship. MMSI: 247283200.

Date/timePositionNaut miles runAvg speedWind from/ knotsBaromVisibWave heightAir tempDewpointWater temp
2017-Jun-23 17:06N 55°43' E 021°06'0 0.0
2017-Jun-23 17:00N 55°43' E 021°06'0 1.0
2017-Jun-23 16:30N 55°43' E 021°07'2 4.7
2017-Jun-23 16:00N 55°44' E 021°03'5 9.2
2017-Jun-23 15:30N 55°45' E 020°55'3 5.4
2017-Jun-23 15:00N 55°46' E 020°51'0 0.2
2017-Jun-23 14:30N 55°46' E 020°51'  
2017-Jun-19 17:07N 58°24' E 020°00'112.4
2017-Jun-19 17:00N 58°26' E 019°60'612.7
2017-Jun-19 16:30N 58°32' E 019°59'3 5.6
2017-Jun-19 16:00N 58°35' E 019°59'0 0.5
2017-Jun-19 15:30N 58°35' E 019°59'0 0.5
2017-Jun-19 15:00N 58°35' E 019°59'0 0.9
2017-Jun-19 14:30N 58°34' E 019°59'7 6.9
2017-Jun-19 13:30N 58°29' E 020°07'612.1
2017-Jun-19 13:00N 58°24' E 020°14'4 7.5
2017-Jun-19 12:31N 58°21' E 020°19'0 0.4
2017-Jun-19 11:44N 58°21' E 020°18'0 0.5
2017-Jun-19 10:55N 58°22' E 020°18'1 0.6
2017-Jun-19 10:05N 58°22' E 020°18'0 0.6
2017-Jun-19 09:48N 58°22' E 020°18'0 0.6
2017-Jun-19 09:26N 58°22' E 020°17'0 0.6
2017-Jun-19 08:58N 58°23' E 020°17'0 0.6
2017-Jun-19 08:19N 58°23' E 020°17'0 0.7
2017-Jun-19 08:00N 58°23' E 020°17'0 0.6
2017-Jun-19 07:30N 58°23' E 020°16'1 0.6
2017-Jun-19 06:08N 58°24' E 020°16'0 0.6
2017-Jun-19 05:59N 58°24' E 020°15'0 0.6
2017-Jun-19 05:25N 58°25' E 020°15'0 0.9
2017-Jun-19 05:00N 58°25' E 020°15'1 1.1
2017-Jun-19 04:30N 58°25' E 020°14'1 1.1
2017-Jun-19 03:51N 58°26' E 020°14'0 1.2
2017-Jun-19 03:30N 58°26' E 020°13'1 1.1
2017-Jun-19 03:00N 58°27' E 020°13'1 1.1
2017-Jun-19 02:31N 58°27' E 020°12'1 1.1
2017-Jun-19 02:00N 58°28' E 020°11'1 1.1
2017-Jun-19 01:30N 58°28' E 020°11'1 1.0
2017-Jun-19 01:00N 58°28' E 020°10'1 1.2
2017-Jun-19 00:30N 58°29' E 020°09'1 1.1
2017-Jun-19 00:00N 58°29' E 020°08'1 1.0
2017-Jun-18 23:29N 58°29' E 020°08'4 0.8
2017-Jun-18 19:03N 58°31' E 020°01'0 1.0
2017-Jun-18 19:00N 58°31' E 020°01'2 0.7
2017-Jun-18 16:14N 58°33' E 019°58'0 0.4
2017-Jun-18 15:28N 58°33' E 019°59'1610.3
2017-Jun-18 13:54N 58°21' E 020°19'4 4.7
2017-Jun-18 13:04N 58°18' E 020°25'0 0.8
2017-Jun-18 12:49N 58°18' E 020°24'0 0.7
2017-Jun-18 12:25N 58°18' E 020°24'0 0.9
2017-Jun-18 12:00N 58°18' E 020°23'1 0.9
2017-Jun-18 11:26N 58°19' E 020°23'0 0.8
2017-Jun-18 10:58N 58°19' E 020°22'0 0.9
2017-Jun-18 10:30N 58°19' E 020°21'0 0.8
2017-Jun-18 10:01N 58°19' E 020°21'0 0.8
2017-Jun-18 09:30N 58°19' E 020°20'0 0.7
2017-Jun-18 09:00N 58°20' E 020°19'0 0.7
2017-Jun-18 08:31N 58°20' E 020°19'0 0.7
2017-Jun-18 08:01N 58°20' E 020°18'0 0.7
2017-Jun-18 07:30N 58°20' E 020°17'0 0.6
2017-Jun-18 07:00N 58°20' E 020°17'0 0.6
2017-Jun-18 06:31N 58°20' E 020°16'0 0.6
2017-Jun-18 06:00N 58°19' E 020°16'0 0.5
2017-Jun-18 05:30N 58°19' E 020°15'1 1.1
2017-Jun-18 05:00N 58°20' E 020°16'4 7.1
2017-Jun-18 04:30N 58°21' E 020°23'611.7
2017-Jun-18 04:00N 58°23' E 020°33'611.7
2017-Jun-18 03:31N 58°25' E 020°44'612.5
2017-Jun-18 03:01N 58°30' E 020°50'612.3
2017-Jun-18 02:30N 58°36' E 020°56'612.6
2017-Jun-18 02:01N 58°41' E 021°02'612.8
2017-Jun-18 01:30N 58°46' E 021°09'613.0
2017-Jun-18 01:00N 58°52' E 021°15'612.9
2017-Jun-18 00:30N 58°57' E 021°22'713.0
2017-Jun-18 00:00N 59°03' E 021°28'612.9
2017-Jun-17 23:31N 59°08' E 021°35'612.9
2017-Jun-17 23:01N 59°13' E 021°45'612.8
2017-Jun-17 22:30N 59°17' E 021°54'612.7
2017-Jun-17 22:00N 59°21' E 022°04'612.8
2017-Jun-17 21:30N 59°25' E 022°14'713.1
2017-Jun-17 21:01N 59°29' E 022°24'612.8
2017-Jun-17 20:30N 59°32' E 022°35'713.1
2017-Jun-17 20:01N 59°34' E 022°47'713.5
2017-Jun-17 19:31N 59°36' E 023°00'612.5
2017-Jun-17 19:00N 59°37' E 023°12'713.1
2017-Jun-17 18:31N 59°39' E 023°25'713.1
2017-Jun-17 18:00N 59°41' E 023°37'613.0
2017-Jun-17 17:31N 59°42' E 023°49'612.8
2017-Jun-17 17:01N 59°44' E 024°02'612.9
2017-Jun-17 16:30N 59°46' E 024°14'612.9
2017-Jun-17 16:00N 59°47' E 024°27'612.7
2017-Jun-17 15:30N 59°49' E 024°39'612.8
2017-Jun-17 15:01N 59°50' E 024°51'612.7
2017-Jun-17 14:30N 59°51' E 025°04'1312.8
2017-Jun-17 13:30N 59°54' E 025°29'612.8
2017-Jun-17 13:01N 59°55' E 025°41'612.8
2017-Jun-17 12:31N 59°56' E 025°54'612.9
2017-Jun-17 12:01N 59°58' E 026°06'612.9
2017-Jun-17 11:30N 59°59' E 026°19'612.8
2017-Jun-17 11:00N 60°01' E 026°31'612.6
2017-Jun-17 10:30N 60°01' E 026°44'612.8
2017-Jun-17 10:01N 59°60' E 026°56'612.2
2017-Jun-17 09:30N 60°01' E 027°08'612.9
2017-Jun-17 09:01N 60°04' E 027°19'713.0
2017-Jun-17 08:30N 60°08' E 027°31'713.0
2017-Jun-17 08:01N 60°11' E 027°42'612.2
2017-Jun-17 07:30N 60°11' E 027°54'613.0
2017-Jun-17 07:00N 60°09' E 028°07'612.3
2017-Jun-17 06:31N 60°07' E 028°18'612.9
2017-Jun-17 06:01N 60°04' E 028°29'510.8
2017-Jun-17 05:30N 59°60' E 028°36'510.2
2017-Jun-17 05:00N 59°55' E 028°33'612.2
2017-Jun-17 04:30N 59°50' E 028°26'510.1
2017-Jun-17 04:01N 59°45' E 028°25'2 4.9
2017-Jun-17 03:30N 59°42' E 028°26'0 0.0
2017-Jun-17 02:50N 59°42' E 028°26'0 0.0
2017-Jun-17 02:23N 59°42' E 028°26'0 0.0
2017-Jun-17 01:53N 59°42' E 028°26'0 0.0
2017-Jun-17 01:23N 59°42' E 028°26'0 0.0
2017-Jun-17 00:53N 59°42' E 028°26'0 0.0
2017-Jun-17 00:23N 59°42' E 028°26'0 0.0
2017-Jun-16 23:53N 59°42' E 028°26'0 0.0
2017-Jun-16 23:26N 59°42' E 028°26'0 0.0
2017-Jun-16 22:56N 59°42' E 028°26'0 0.0
2017-Jun-16 22:26N 59°42' E 028°26'0 0.0
2017-Jun-16 21:53N 59°42' E 028°26'0 0.0
2017-Jun-16 21:26N 59°42' E 028°26'0 0.0
2017-Jun-16 20:56N 59°42' E 028°26'0 0.0
2017-Jun-16 20:29N 59°42' E 028°26'0 0.0
2017-Jun-16 19:59N 59°42' E 028°26'0 0.0
2017-Jun-16 19:26N 59°42' E 028°26'0 0.0
2017-Jun-16 18:59N 59°42' E 028°26'0 0.0
2017-Jun-16 18:29N 59°42' E 028°26'0 0.0
2017-Jun-16 17:59N 59°42' E 028°26'0 0.0
2017-Jun-16 17:29N 59°42' E 028°26'0 0.0
2017-Jun-16 16:59N 59°42' E 028°26'0 0.0
2017-Jun-16 16:29N 59°42' E 028°26'0 0.0
2017-Jun-16 15:56N 59°42' E 028°26'0 0.0
2017-Jun-16 15:29N 59°42' E 028°26'0 0.0
2017-Jun-16 14:59N 59°42' E 028°26'0 0.0
2017-Jun-16 14:29N 59°42' E 028°26'0 0.0
2017-Jun-16 13:20N 59°42' E 028°26'0 0.0
2017-Jun-16 12:53N 59°42' E 028°26'0 0.0
2017-Jun-16 12:29N 59°42' E 028°26'0 0.0
2017-Jun-16 11:53N 59°42' E 028°26'0 0.0
2017-Jun-16 11:23N 59°42' E 028°26'0 0.0
2017-Jun-16 10:53N 59°42' E 028°26'0 0.0
2017-Jun-16 10:23N 59°42' E 028°26'0 0.0
2017-Jun-16 09:53N 59°42' E 028°26'0 0.0
2017-Jun-16 09:26N 59°42' E 028°26'0 0.0
2017-Jun-16 08:56N 59°42' E 028°26'0 0.0
2017-Jun-16 08:26N 59°42' E 028°26'0 0.0
2017-Jun-16 07:56N 59°42' E 028°26'0 0.0
2017-Jun-16 07:26N 59°42' E 028°26'0 0.0
2017-Jun-16 06:56N 59°42' E 028°26'0 0.0
2017-Jun-16 06:29N 59°42' E 028°26'0 0.0
2017-Jun-16 05:56N 59°42' E 028°26'0 0.0
2017-Jun-16 05:29N 59°42' E 028°26'0 0.0
2017-Jun-16 04:59N 59°42' E 028°26'0 0.0
2017-Jun-16 04:29N 59°42' E 028°26'0 0.0
2017-Jun-16 03:59N 59°42' E 028°26'0 0.0
2017-Jun-16 03:29N 59°42' E 028°26'0 0.0
2017-Jun-16 02:59N 59°42' E 028°26'0 0.0
2017-Jun-16 02:29N 59°42' E 028°26'0 0.0
2017-Jun-16 01:59N 59°42' E 028°26'0 0.0
2017-Jun-16 01:29N 59°42' E 028°26'0 0.0
2017-Jun-16 00:59N 59°42' E 028°26'0 0.0
2017-Jun-16 00:31N 59°42' E 028°26'1 1.0
2017-Jun-16 00:00N 59°42' E 028°25'2 3.4
2017-Jun-15 23:31N 59°43' E 028°23'4 7.1
2017-Jun-15 23:00N 59°47' E 028°24'0 0.2
2017-Jun-15 22:28N 59°47' E 028°24'0 0.0
2017-Jun-15 21:58N 59°47' E 028°24'0 0.1
2017-Jun-15 21:28N 59°47' E 028°24'0 0.0
2017-Jun-15 20:58N 59°47' E 028°24'0 0.0
2017-Jun-15 20:28N 59°47' E 028°24'0 0.1
2017-Jun-15 19:58N 59°47' E 028°24'0 0.1
2017-Jun-15 19:28N 59°47' E 028°24'0 0.0
2017-Jun-15 18:58N 59°47' E 028°24'0 0.0
2017-Jun-15 18:28N 59°47' E 028°24'0 0.0
2017-Jun-15 17:58N 59°47' E 028°24'0 0.0
2017-Jun-15 17:28N 59°47' E 028°24'0 0.0
2017-Jun-15 16:58N 59°47' E 028°24'0 0.0
2017-Jun-15 16:30N 59°47' E 028°24'0 0.0
2017-Jun-15 15:58N 59°47' E 028°24'0 0.0
2017-Jun-15 15:29N 59°47' E 028°24'0 0.0
2017-Jun-15 14:58N 59°47' E 028°24'0 0.0
2017-Jun-15 14:28N 59°47' E 028°24'0 0.0
2017-Jun-15 13:28N 59°47' E 028°24'0 0.0
2017-Jun-15 12:58N 59°47' E 028°24'0 0.2
2017-Jun-15 12:30N 59°47' E 028°24'0 0.2
2017-Jun-15 11:57N 59°47' E 028°24'1 2.1
2017-Jun-15 11:30N 59°48' E 028°25'510.6
2017-Jun-15 11:00N 59°53' E 028°28'4 8.5
2017-Jun-15 10:30N 59°56' E 028°33'3 6.2
2017-Jun-15 10:00N 59°59' E 028°35'3 5.7
2017-Jun-15 09:30N 60°02' E 028°34'4 8.1
2017-Jun-15 09:00N 60°03' E 028°26'4 8.0
2017-Jun-15 08:30N 60°05' E 028°20'5 9.3
2017-Jun-15 08:00N 60°08' E 028°12'511.0
2017-Jun-15 07:30N 60°09' E 028°01'611.2
2017-Jun-15 07:00N 60°11' E 027°50'710.6
2017-Jun-15 06:21N 60°08' E 027°37'411.1
2017-Jun-15 06:00N 60°06' E 027°31'611.0
2017-Jun-15 05:29N 60°03' E 027°21'511.0
2017-Jun-15 05:00N 60°00' E 027°12'510.7
2017-Jun-15 04:30N 59°57' E 027°03'510.9
2017-Jun-15 04:00N 59°59' E 026°52'611.0
2017-Jun-15 03:30N 59°59' E 026°41'511.0
2017-Jun-15 03:00N 59°58' E 026°30'510.9
2017-Jun-15 02:30N 59°57' E 026°20'6311.1
2017-Jun-14 20:53N 59°43' E 024°19'611.1
2017-Jun-14 20:23N 59°41' E 024°08'411.2
2017-Jun-14 20:00N 59°40' E 024°00'511.2
2017-Jun-14 19:31N 59°38' E 023°50'611.0
2017-Jun-14 19:00N 59°36' E 023°39'510.9
2017-Jun-14 18:31N 59°34' E 023°29'612.3
2017-Jun-14 18:00N 59°32' E 023°18'5 9.4
2017-Jun-14 17:30N 59°31' E 023°09'611.2
2017-Jun-14 17:00N 59°29' E 022°59'611.3
2017-Jun-14 16:31N 59°27' E 022°48'611.4
2017-Jun-14 16:00N 59°25' E 022°38'511.0
2017-Jun-14 15:30N 59°22' E 022°29'611.6
2017-Jun-14 15:01N 59°18' E 022°20'1111.5
2017-Jun-14 14:01N 59°11' E 022°02'611.3
2017-Jun-14 13:30N 59°08' E 021°54'611.3
2017-Jun-14 13:00N 59°04' E 021°46'611.1
2017-Jun-14 12:30N 58°59' E 021°39'611.0
2017-Jun-14 12:00N 58°55' E 021°33'510.9
2017-Jun-14 11:30N 58°50' E 021°27'510.8
2017-Jun-14 11:00N 58°46' E 021°22'511.0
2017-Jun-14 10:31N 58°41' E 021°16'510.9
2017-Jun-14 10:01N 58°36' E 021°10'611.0
2017-Jun-14 09:30N 58°32' E 021°04'611.2
2017-Jun-14 09:01N 58°27' E 020°58'611.3
2017-Jun-14 08:30N 58°23' E 020°52'611.4
2017-Jun-14 08:01N 58°18' E 020°45'611.1
2017-Jun-14 07:31N 58°13' E 020°40'611.0
2017-Jun-14 07:00N 58°09' E 020°34'510.9
2017-Jun-14 06:30N 58°04' E 020°28'1010.6
2017-Jun-14 05:31N 57°55' E 020°19'010.6
2017-Jun-14 05:28N 57°55' E 020°19'610.7
2017-Jun-14 04:57N 57°49' E 020°15'  
Track history (hours):
 
Tides and Currents Weather Stations Pressure Air Temp Water Temp Dewpoint Dewpoint Depression Visibility Wind Speed Wind Dir Waves Ship Positions

Rhapsody

Operator: Mediterranean Shipping Company

Last reported at 2017-Jun-23 17:06 UTC. Time now 2017-Jun-26 17:18 UTC.
Position N 55°43' E 021°06'.

Length 180 m; draft 10.3 m.

Type: Ship. MMSI: 247283200.

Date/timePositionNaut miles runAvg speedWind from/ knotsBaromVisibWave heightAir tempDewpointWater temp
2017-Jun-23 17:06N 55°43' E 021°06'0 0.0
2017-Jun-23 17:00N 55°43' E 021°06'0 1.0
2017-Jun-23 16:30N 55°43' E 021°07'2 4.7
2017-Jun-23 16:00N 55°44' E 021°03'5 9.2
2017-Jun-23 15:30N 55°45' E 020°55'3 5.4
2017-Jun-23 15:00N 55°46' E 020°51'0 0.2
2017-Jun-23 14:30N 55°46' E 020°51'  
2017-Jun-19 17:07N 58°24' E 020°00'112.4
2017-Jun-19 17:00N 58°26' E 019°60'612.7
2017-Jun-19 16:30N 58°32' E 019°59'3 5.6
2017-Jun-19 16:00N 58°35' E 019°59'0 0.5
2017-Jun-19 15:30N 58°35' E 019°59'0 0.5
2017-Jun-19 15:00N 58°35' E 019°59'0 0.9
2017-Jun-19 14:30N 58°34' E 019°59'7 6.9
2017-Jun-19 13:30N 58°29' E 020°07'612.1
2017-Jun-19 13:00N 58°24' E 020°14'4 7.5
2017-Jun-19 12:31N 58°21' E 020°19'0 0.4
2017-Jun-19 11:44N 58°21' E 020°18'0 0.5
2017-Jun-19 10:55N 58°22' E 020°18'1 0.6
2017-Jun-19 10:05N 58°22' E 020°18'0 0.6
2017-Jun-19 09:48N 58°22' E 020°18'0 0.6
2017-Jun-19 09:26N 58°22' E 020°17'0 0.6
2017-Jun-19 08:58N 58°23' E 020°17'0 0.6
2017-Jun-19 08:19N 58°23' E 020°17'0 0.7
2017-Jun-19 08:00N 58°23' E 020°17'0 0.6
2017-Jun-19 07:30N 58°23' E 020°16'1 0.6
2017-Jun-19 06:08N 58°24' E 020°16'0 0.6
2017-Jun-19 05:59N 58°24' E 020°15'0 0.6
2017-Jun-19 05:25N 58°25' E 020°15'0 0.9
2017-Jun-19 05:00N 58°25' E 020°15'1 1.1
2017-Jun-19 04:30N 58°25' E 020°14'1 1.1
2017-Jun-19 03:51N 58°26' E 020°14'0 1.2
2017-Jun-19 03:30N 58°26' E 020°13'1 1.1
2017-Jun-19 03:00N 58°27' E 020°13'1 1.1
2017-Jun-19 02:31N 58°27' E 020°12'1 1.1
2017-Jun-19 02:00N 58°28' E 020°11'1 1.1
2017-Jun-19 01:30N 58°28' E 020°11'1 1.0
2017-Jun-19 01:00N 58°28' E 020°10'1 1.2
2017-Jun-19 00:30N 58°29' E 020°09'1 1.1
2017-Jun-19 00:00N 58°29' E 020°08'1 1.0
2017-Jun-18 23:29N 58°29' E 020°08'4 0.8
2017-Jun-18 19:03N 58°31' E 020°01'0 1.0
2017-Jun-18 19:00N 58°31' E 020°01'2 0.7
2017-Jun-18 16:14N 58°33' E 019°58'0 0.4
2017-Jun-18 15:28N 58°33' E 019°59'1610.3
2017-Jun-18 13:54N 58°21' E 020°19'4 4.7
2017-Jun-18 13:04N 58°18' E 020°25'0 0.8
2017-Jun-18 12:49N 58°18' E 020°24'0 0.7
2017-Jun-18 12:25N 58°18' E 020°24'0 0.9
2017-Jun-18 12:00N 58°18' E 020°23'1 0.9
2017-Jun-18 11:26N 58°19' E 020°23'0 0.8
2017-Jun-18 10:58N 58°19' E 020°22'0 0.9
2017-Jun-18 10:30N 58°19' E 020°21'0 0.8
2017-Jun-18 10:01N 58°19' E 020°21'0 0.8
2017-Jun-18 09:30N 58°19' E 020°20'0 0.7
2017-Jun-18 09:00N 58°20' E 020°19'0 0.7
2017-Jun-18 08:31N 58°20' E 020°19'0 0.7
2017-Jun-18 08:01N 58°20' E 020°18'0 0.7
2017-Jun-18 07:30N 58°20' E 020°17'0 0.6
2017-Jun-18 07:00N 58°20' E 020°17'0 0.6
2017-Jun-18 06:31N 58°20' E 020°16'0 0.6
2017-Jun-18 06:00N 58°19' E 020°16'0 0.5
2017-Jun-18 05:30N 58°19' E 020°15'1 1.1
2017-Jun-18 05:00N 58°20' E 020°16'4 7.1
2017-Jun-18 04:30N 58°21' E 020°23'611.7
2017-Jun-18 04:00N 58°23' E 020°33'611.7
2017-Jun-18 03:31N 58°25' E 020°44'612.5
2017-Jun-18 03:01N 58°30' E 020°50'612.3
2017-Jun-18 02:30N 58°36' E 020°56'612.6
2017-Jun-18 02:01N 58°41' E 021°02'612.8
2017-Jun-18 01:30N 58°46' E 021°09'613.0
2017-Jun-18 01:00N 58°52' E 021°15'612.9
2017-Jun-18 00:30N 58°57' E 021°22'713.0
2017-Jun-18 00:00N 59°03' E 021°28'612.9
2017-Jun-17 23:31N 59°08' E 021°35'612.9
2017-Jun-17 23:01N 59°13' E 021°45'612.8
2017-Jun-17 22:30N 59°17' E 021°54'612.7
2017-Jun-17 22:00N 59°21' E 022°04'612.8
2017-Jun-17 21:30N 59°25' E 022°14'713.1
2017-Jun-17 21:01N 59°29' E 022°24'612.8
2017-Jun-17 20:30N 59°32' E 022°35'713.1
2017-Jun-17 20:01N 59°34' E 022°47'713.5
2017-Jun-17 19:31N 59°36' E 023°00'612.5
2017-Jun-17 19:00N 59°37' E 023°12'713.1
2017-Jun-17 18:31N 59°39' E 023°25'713.1
2017-Jun-17 18:00N 59°41' E 023°37'613.0
2017-Jun-17 17:31N 59°42' E 023°49'612.8
2017-Jun-17 17:01N 59°44' E 024°02'612.9
2017-Jun-17 16:30N 59°46' E 024°14'612.9
2017-Jun-17 16:00N 59°47' E 024°27'612.7
2017-Jun-17 15:30N 59°49' E 024°39'612.8
2017-Jun-17 15:01N 59°50' E 024°51'612.7
2017-Jun-17 14:30N 59°51' E 025°04'1312.8
2017-Jun-17 13:30N 59°54' E 025°29'612.8
2017-Jun-17 13:01N 59°55' E 025°41'612.8
2017-Jun-17 12:31N 59°56' E 025°54'612.9
2017-Jun-17 12:01N 59°58' E 026°06'612.9
2017-Jun-17 11:30N 59°59' E 026°19'612.8
2017-Jun-17 11:00N 60°01' E 026°31'612.6
2017-Jun-17 10:30N 60°01' E 026°44'612.8
2017-Jun-17 10:01N 59°60' E 026°56'612.2
2017-Jun-17 09:30N 60°01' E 027°08'612.9
2017-Jun-17 09:01N 60°04' E 027°19'713.0
2017-Jun-17 08:30N 60°08' E 027°31'713.0
2017-Jun-17 08:01N 60°11' E 027°42'612.2
2017-Jun-17 07:30N 60°11' E 027°54'613.0
2017-Jun-17 07:00N 60°09' E 028°07'612.3
2017-Jun-17 06:31N 60°07' E 028°18'612.9
2017-Jun-17 06:01N 60°04' E 028°29'510.8
2017-Jun-17 05:30N 59°60' E 028°36'510.2
2017-Jun-17 05:00N 59°55' E 028°33'612.2
2017-Jun-17 04:30N 59°50' E 028°26'510.1
2017-Jun-17 04:01N 59°45' E 028°25'2 4.9
2017-Jun-17 03:30N 59°42' E 028°26'0 0.0
2017-Jun-17 02:50N 59°42' E 028°26'0 0.0
2017-Jun-17 02:23N 59°42' E 028°26'0 0.0
2017-Jun-17 01:53N 59°42' E 028°26'0 0.0
2017-Jun-17 01:23N 59°42' E 028°26'0 0.0
2017-Jun-17 00:53N 59°42' E 028°26'0 0.0
2017-Jun-17 00:23N 59°42' E 028°26'0 0.0
2017-Jun-16 23:53N 59°42' E 028°26'0 0.0
2017-Jun-16 23:26N 59°42' E 028°26'0 0.0
2017-Jun-16 22:56N 59°42' E 028°26'0 0.0
2017-Jun-16 22:26N 59°42' E 028°26'0 0.0
2017-Jun-16 21:53N 59°42' E 028°26'0 0.0
2017-Jun-16 21:26N 59°42' E 028°26'0 0.0
2017-Jun-16 20:56N 59°42' E 028°26'0 0.0
2017-Jun-16 20:29N 59°42' E 028°26'0 0.0
2017-Jun-16 19:59N 59°42' E 028°26'0 0.0
2017-Jun-16 19:26N 59°42' E 028°26'0 0.0
2017-Jun-16 18:59N 59°42' E 028°26'0 0.0
2017-Jun-16 18:29N 59°42' E 028°26'0 0.0
2017-Jun-16 17:59N 59°42' E 028°26'0 0.0
2017-Jun-16 17:29N 59°42' E 028°26'0 0.0
2017-Jun-16 16:59N 59°42' E 028°26'0 0.0
2017-Jun-16 16:29N 59°42' E 028°26'0 0.0
2017-Jun-16 15:56N 59°42' E 028°26'0 0.0
2017-Jun-16 15:29N 59°42' E 028°26'0 0.0
2017-Jun-16 14:59N 59°42' E 028°26'0 0.0
2017-Jun-16 14:29N 59°42' E 028°26'0 0.0
2017-Jun-16 13:20N 59°42' E 028°26'0 0.0
2017-Jun-16 12:53N 59°42' E 028°26'0 0.0
2017-Jun-16 12:29N 59°42' E 028°26'0 0.0
2017-Jun-16 11:53N 59°42' E 028°26'0 0.0
2017-Jun-16 11:23N 59°42' E 028°26'0 0.0
2017-Jun-16 10:53N 59°42' E 028°26'0 0.0
2017-Jun-16 10:23N 59°42' E 028°26'0 0.0
2017-Jun-16 09:53N 59°42' E 028°26'0 0.0
2017-Jun-16 09:26N 59°42' E 028°26'0 0.0
2017-Jun-16 08:56N 59°42' E 028°26'0 0.0
2017-Jun-16 08:26N 59°42' E 028°26'0 0.0
2017-Jun-16 07:56N 59°42' E 028°26'0 0.0
2017-Jun-16 07:26N 59°42' E 028°26'0 0.0
2017-Jun-16 06:56N 59°42' E 028°26'0 0.0
2017-Jun-16 06:29N 59°42' E 028°26'0 0.0
2017-Jun-16 05:56N 59°42' E 028°26'0 0.0
2017-Jun-16 05:29N 59°42' E 028°26'0 0.0
2017-Jun-16 04:59N 59°42' E 028°26'0 0.0
2017-Jun-16 04:29N 59°42' E 028°26'0 0.0
2017-Jun-16 03:59N 59°42' E 028°26'0 0.0
2017-Jun-16 03:29N 59°42' E 028°26'0 0.0
2017-Jun-16 02:59N 59°42' E 028°26'0 0.0
2017-Jun-16 02:29N 59°42' E 028°26'0 0.0
2017-Jun-16 01:59N 59°42' E 028°26'0 0.0
2017-Jun-16 01:29N 59°42' E 028°26'0 0.0
2017-Jun-16 00:59N 59°42' E 028°26'0 0.0
2017-Jun-16 00:31N 59°42' E 028°26'1 1.0
2017-Jun-16 00:00N 59°42' E 028°25'2 3.4
2017-Jun-15 23:31N 59°43' E 028°23'4 7.1
2017-Jun-15 23:00N 59°47' E 028°24'0 0.2
2017-Jun-15 22:28N 59°47' E 028°24'0 0.0
2017-Jun-15 21:58N 59°47' E 028°24'0 0.1
2017-Jun-15 21:28N 59°47' E 028°24'0 0.0
2017-Jun-15 20:58N 59°47' E 028°24'0 0.0
2017-Jun-15 20:28N 59°47' E 028°24'0 0.1
2017-Jun-15 19:58N 59°47' E 028°24'0 0.1
2017-Jun-15 19:28N 59°47' E 028°24'0 0.0
2017-Jun-15 18:58N 59°47' E 028°24'0 0.0
2017-Jun-15 18:28N 59°47' E 028°24'0 0.0
2017-Jun-15 17:58N 59°47' E 028°24'0 0.0
2017-Jun-15 17:28N 59°47' E 028°24'0 0.0
2017-Jun-15 16:58N 59°47' E 028°24'0 0.0
2017-Jun-15 16:30N 59°47' E 028°24'0 0.0
2017-Jun-15 15:58N 59°47' E 028°24'0 0.0
2017-Jun-15 15:29N 59°47' E 028°24'0 0.0
2017-Jun-15 14:58N 59°47' E 028°24'0 0.0
2017-Jun-15 14:28N 59°47' E 028°24'0 0.0
2017-Jun-15 13:28N 59°47' E 028°24'0 0.0
2017-Jun-15 12:58N 59°47' E 028°24'0 0.2
2017-Jun-15 12:30N 59°47' E 028°24'0 0.2
2017-Jun-15 11:57N 59°47' E 028°24'1 2.1
2017-Jun-15 11:30N 59°48' E 028°25'510.6
2017-Jun-15 11:00N 59°53' E 028°28'4 8.5
2017-Jun-15 10:30N 59°56' E 028°33'3 6.2
2017-Jun-15 10:00N 59°59' E 028°35'3 5.7
2017-Jun-15 09:30N 60°02' E 028°34'4 8.1
2017-Jun-15 09:00N 60°03' E 028°26'4 8.0
2017-Jun-15 08:30N 60°05' E 028°20'5 9.3
2017-Jun-15 08:00N 60°08' E 028°12'511.0
2017-Jun-15 07:30N 60°09' E 028°01'611.2
2017-Jun-15 07:00N 60°11' E 027°50'710.6
2017-Jun-15 06:21N 60°08' E 027°37'411.1
2017-Jun-15 06:00N 60°06' E 027°31'611.0
2017-Jun-15 05:29N 60°03' E 027°21'511.0
2017-Jun-15 05:00N 60°00' E 027°12'510.7
2017-Jun-15 04:30N 59°57' E 027°03'510.9
2017-Jun-15 04:00N 59°59' E 026°52'611.0
2017-Jun-15 03:30N 59°59' E 026°41'511.0
2017-Jun-15 03:00N 59°58' E 026°30'510.9
2017-Jun-15 02:30N 59°57' E 026°20'6311.1
2017-Jun-14 20:53N 59°43' E 024°19'611.1
2017-Jun-14 20:23N 59°41' E 024°08'411.2
2017-Jun-14 20:00N 59°40' E 024°00'511.2
2017-Jun-14 19:31N 59°38' E 023°50'611.0
2017-Jun-14 19:00N 59°36' E 023°39'510.9
2017-Jun-14 18:31N 59°34' E 023°29'612.3
2017-Jun-14 18:00N 59°32' E 023°18'5 9.4
2017-Jun-14 17:30N 59°31' E 023°09'611.2
2017-Jun-14 17:00N 59°29' E 022°59'611.3
2017-Jun-14 16:31N 59°27' E 022°48'611.4
2017-Jun-14 16:00N 59°25' E 022°38'511.0
2017-Jun-14 15:30N 59°22' E 022°29'611.6
2017-Jun-14 15:01N 59°18' E 022°20'1111.5
2017-Jun-14 14:01N 59°11' E 022°02'611.3
2017-Jun-14 13:30N 59°08' E 021°54'611.3
2017-Jun-14 13:00N 59°04' E 021°46'611.1
2017-Jun-14 12:30N 58°59' E 021°39'611.0
2017-Jun-14 12:00N 58°55' E 021°33'510.9
2017-Jun-14 11:30N 58°50' E 021°27'510.8
2017-Jun-14 11:00N 58°46' E 021°22'511.0
2017-Jun-14 10:31N 58°41' E 021°16'510.9
2017-Jun-14 10:01N 58°36' E 021°10'611.0
2017-Jun-14 09:30N 58°32' E 021°04'611.2
2017-Jun-14 09:01N 58°27' E 020°58'611.3
2017-Jun-14 08:30N 58°23' E 020°52'611.4
2017-Jun-14 08:01N 58°18' E 020°45'611.1
2017-Jun-14 07:31N 58°13' E 020°40'611.0
2017-Jun-14 07:00N 58°09' E 020°34'510.9
2017-Jun-14 06:30N 58°04' E 020°28'1010.6
2017-Jun-14 05:31N 57°55' E 020°19'010.6
2017-Jun-14 05:28N 57°55' E 020°19'610.7
2017-Jun-14 04:57N 57°49' E 020°15'  

Dump ship's entire track history